createdAt,value
2022-09-15T00:00:25.467Z,12.42
2022-09-15T00:01:25.572Z,12.39
2022-09-15T00:02:25.080Z,12.39
2022-09-15T00:03:25.129Z,12.41
2022-09-15T00:04:24.903Z,12.39
2022-09-15T00:05:25.367Z,12.42
2022-09-15T00:06:27.273Z,12.41
2022-09-15T00:07:25.108Z,12.39
2022-09-15T00:08:24.942Z,12.39
2022-09-15T00:09:24.848Z,12.37
2022-09-15T00:10:24.885Z,12.35
2022-09-15T00:11:24.850Z,12.37
2022-09-15T00:12:25.098Z,12.37
2022-09-15T00:13:25.392Z,12.39
2022-09-15T00:14:24.879Z,12.37
2022-09-15T00:15:24.835Z,12.37
2022-09-15T00:16:24.911Z,12.37
2022-09-15T00:17:24.868Z,12.34
2022-09-15T00:18:24.772Z,12.35
2022-09-15T00:19:24.815Z,12.31
2022-09-15T00:20:25.053Z,12.32
2022-09-15T00:21:25.574Z,12.34
2022-09-15T00:22:24.730Z,12.34
2022-09-15T00:23:24.885Z,12.29
2022-09-15T00:24:24.745Z,12.31
2022-09-15T00:25:25.011Z,12.31
2022-09-15T00:26:25.992Z,12.32
2022-09-15T00:27:24.880Z,12.32
2022-09-15T00:28:24.996Z,12.31
2022-09-15T00:29:24.734Z,12.34
2022-09-15T00:30:25.631Z,12.32
2022-09-15T00:31:24.776Z,12.32
2022-09-15T00:32:24.724Z,12.32
2022-09-15T00:33:25.416Z,12.32
2022-09-15T00:34:24.873Z,12.29
2022-09-15T00:35:24.614Z,12.31
2022-09-15T00:36:24.557Z,12.31
2022-09-15T00:37:24.912Z,12.28
2022-09-15T00:38:24.666Z,12.28
2022-09-15T00:39:26.139Z,12.24
2022-09-15T00:40:24.577Z,12.23
2022-09-15T00:41:24.991Z,12.23
2022-09-15T00:42:24.682Z,12.23
2022-09-15T00:43:24.828Z,12.23
2022-09-15T00:44:24.704Z,12.23
2022-09-15T00:45:24.906Z,12.23
2022-09-15T00:46:24.504Z,12.27
2022-09-15T00:47:24.714Z,12.27
2022-09-15T00:48:24.668Z,12.21
2022-09-15T00:49:24.836Z,12.24
2022-09-15T00:50:24.560Z,12.23
2022-09-15T00:51:24.480Z,12.23
2022-09-15T00:52:24.431Z,12.20
2022-09-15T00:53:24.388Z,12.19
2022-09-15T00:54:27.982Z,12.16
2022-09-15T00:55:25.724Z,12.17
2022-09-15T00:56:24.294Z,12.17
2022-09-15T00:57:24.290Z,12.17
2022-09-15T00:58:24.594Z,12.16
2022-09-15T00:59:25.538Z,12.13
2022-09-15T01:00:24.291Z,12.12
2022-09-15T01:01:24.518Z,12.14
2022-09-15T01:02:24.312Z,12.13
2022-09-15T01:03:24.746Z,12.13
2022-09-15T01:04:24.288Z,12.12
2022-09-15T01:05:24.189Z,12.07
2022-09-15T01:06:24.316Z,12.04
2022-09-15T01:07:24.151Z,12.02
2022-09-15T01:08:24.213Z,12.02
2022-09-15T01:09:24.178Z,12.04
2022-09-15T01:10:24.318Z,12.04
2022-09-15T01:11:24.166Z,12.05
2022-09-15T01:12:24.551Z,12.04
2022-09-15T01:13:24.173Z,12.05
2022-09-15T01:14:25.083Z,12.09
2022-09-15T01:15:24.831Z,12.10
2022-09-15T01:16:24.457Z,12.09
2022-09-15T01:17:24.289Z,12.10
2022-09-15T01:18:24.068Z,12.12
2022-09-15T01:19:24.544Z,12.10
2022-09-15T01:20:24.611Z,12.13
2022-09-15T01:21:24.173Z,12.12
2022-09-15T01:22:24.180Z,12.10
2022-09-15T01:23:24.054Z,12.12
2022-09-15T01:24:24.656Z,12.13
2022-09-15T01:25:24.233Z,12.13
2022-09-15T01:26:24.028Z,12.16
2022-09-15T01:27:41.519Z,12.16
2022-09-15T01:28:25.003Z,12.14
2022-09-15T01:29:24.117Z,12.12
2022-09-15T01:30:24.113Z,12.13
2022-09-15T01:31:24.154Z,12.13
2022-09-15T01:32:23.924Z,12.14
2022-09-15T01:33:23.864Z,12.12
2022-09-15T01:34:23.942Z,12.10
2022-09-15T01:35:24.018Z,12.10
2022-09-15T01:36:23.843Z,12.09
2022-09-15T01:37:23.951Z,12.12
2022-09-15T01:38:23.862Z,12.10
2022-09-15T01:39:23.967Z,12.09
2022-09-15T01:40:24.714Z,12.09
2022-09-15T01:41:23.962Z,12.07
2022-09-15T01:42:24.027Z,12.07
2022-09-15T01:43:23.998Z,12.07
2022-09-15T01:44:23.764Z,12.10
2022-09-15T01:45:24.736Z,12.09
2022-09-15T01:46:23.805Z,12.09
2022-09-15T01:47:23.836Z,12.07
2022-09-15T01:48:23.863Z,12.09
2022-09-15T01:49:23.803Z,12.09
2022-09-15T01:50:23.784Z,12.09
2022-09-15T01:51:23.720Z,12.10
2022-09-15T01:52:24.096Z,12.09
2022-09-15T01:53:23.805Z,12.05
2022-09-15T01:54:23.661Z,12.04
2022-09-15T01:55:23.689Z,12.04
2022-09-15T01:56:24.073Z,12.02
2022-09-15T01:57:23.979Z,12.02
2022-09-15T01:58:23.734Z,12.02
2022-09-15T01:59:23.800Z,11.99
2022-09-15T02:00:23.685Z,11.99
2022-09-15T02:01:23.769Z,11.98
2022-09-15T02:02:23.729Z,11.95
2022-09-15T02:03:23.664Z,11.91
2022-09-15T02:04:23.660Z,11.88
2022-09-15T02:05:24.518Z,11.88
2022-09-15T02:06:24.459Z,11.86
2022-09-15T02:07:23.607Z,11.85
2022-09-15T02:08:23.649Z,11.82
2022-09-15T02:09:23.858Z,11.80
2022-09-15T02:10:23.516Z,11.78
2022-09-15T02:11:24.320Z,11.75
2022-09-15T02:12:23.503Z,11.73
2022-09-15T02:13:23.827Z,11.73
2022-09-15T02:14:23.567Z,11.70
2022-09-15T02:15:24.061Z,11.65
2022-09-15T02:16:23.642Z,11.64
2022-09-15T02:17:23.499Z,11.61
2022-09-15T02:18:24.316Z,11.58
2022-09-15T02:19:23.548Z,11.54
2022-09-15T02:20:23.522Z,11.54
2022-09-15T02:21:23.797Z,11.55
2022-09-15T02:22:23.823Z,11.55
2022-09-15T02:23:23.401Z,11.55
2022-09-15T02:24:23.638Z,11.51
2022-09-15T02:25:23.690Z,11.47
2022-09-15T02:26:23.471Z,11.46
2022-09-15T02:27:24.994Z,11.44
2022-09-15T02:28:23.401Z,11.46
2022-09-15T02:29:23.545Z,11.49
2022-09-15T02:30:23.527Z,11.51
2022-09-15T02:31:23.417Z,11.52
2022-09-15T02:32:23.361Z,11.51
2022-09-15T02:33:23.548Z,11.49
2022-09-15T02:34:23.279Z,11.46
2022-09-15T02:35:23.939Z,11.42
2022-09-15T02:36:23.585Z,11.39
2022-09-15T02:37:23.534Z,11.36
2022-09-15T02:42:33.353Z,11.27
2022-09-15T02:43:33.145Z,11.22
2022-09-15T02:44:33.039Z,11.22
2022-09-15T02:45:33.076Z,11.24
2022-09-15T02:46:33.009Z,11.22
2022-09-15T02:47:33.007Z,11.25
2022-09-15T02:48:32.992Z,11.25
2022-09-15T02:49:32.983Z,11.27
2022-09-15T02:50:32.969Z,11.27
2022-09-15T02:51:33.045Z,11.25
2022-09-15T02:52:33.037Z,11.24
2022-09-15T02:53:32.942Z,11.24
2022-09-15T02:54:32.918Z,11.24
2022-09-15T02:55:32.903Z,11.17
2022-09-15T02:56:32.903Z,11.17
2022-09-15T02:57:32.881Z,11.18
2022-09-15T02:58:32.903Z,11.19
2022-09-15T02:59:32.911Z,11.19
2022-09-15T03:00:32.939Z,11.19
2022-09-15T03:01:32.868Z,11.21
2022-09-15T03:02:32.897Z,11.25
2022-09-15T03:03:32.917Z,11.28
2022-09-15T03:04:32.856Z,11.25
2022-09-15T03:05:32.815Z,11.27
2022-09-15T03:06:32.835Z,11.25
2022-09-15T03:07:32.795Z,11.25
2022-09-15T03:08:32.814Z,11.24
2022-09-15T03:09:32.905Z,11.24
2022-09-15T03:10:32.757Z,11.33
2022-09-15T03:11:32.772Z,11.36
2022-09-15T03:12:32.778Z,11.36
2022-09-15T03:13:32.699Z,11.36
2022-09-15T03:14:32.727Z,11.36
2022-09-15T03:15:32.691Z,11.37
2022-09-15T03:16:32.789Z,11.37
2022-09-15T03:17:32.664Z,11.40
2022-09-15T03:18:32.676Z,11.39
2022-09-15T03:19:32.640Z,11.40
2022-09-15T03:20:32.724Z,11.44
2022-09-15T03:21:32.619Z,11.40
2022-09-15T03:22:32.734Z,11.39
2022-09-15T03:23:32.660Z,11.35
2022-09-15T03:24:32.606Z,11.29
2022-09-15T03:25:32.627Z,11.29
2022-09-15T03:26:32.690Z,11.28
2022-09-15T03:27:32.605Z,11.28
2022-09-15T03:28:32.557Z,11.27
2022-09-15T03:29:32.539Z,11.27
2022-09-15T03:30:32.548Z,11.28
2022-09-15T03:31:32.551Z,11.27
2022-09-15T03:32:32.516Z,11.25
2022-09-15T03:33:32.527Z,11.25
2022-09-15T03:34:32.477Z,11.27
2022-09-15T03:35:32.473Z,11.25
2022-09-15T03:36:32.475Z,11.24
2022-09-15T03:37:32.457Z,11.25
2022-09-15T03:38:32.472Z,11.24
2022-09-15T03:39:32.453Z,11.24
2022-09-15T03:40:32.454Z,11.24
2022-09-15T03:41:32.420Z,11.22
2022-09-15T03:42:32.426Z,11.24
2022-09-15T03:43:32.420Z,11.24
2022-09-15T03:44:32.385Z,11.27
2022-09-15T03:45:32.438Z,11.24
2022-09-15T03:46:32.345Z,11.25
2022-09-15T03:47:32.346Z,11.27
2022-09-15T03:48:32.343Z,11.24
2022-09-15T03:49:32.310Z,11.24
2022-09-15T03:50:32.326Z,11.25
2022-09-15T03:51:32.306Z,11.25
2022-09-15T03:52:32.298Z,11.27
2022-09-15T03:53:32.950Z,11.27
2022-09-15T03:54:32.308Z,11.27
2022-09-15T03:55:32.242Z,11.27
2022-09-15T03:56:32.242Z,11.28
2022-09-15T03:57:32.274Z,11.29
2022-09-15T03:58:32.260Z,11.33
2022-09-15T03:59:32.255Z,11.37
2022-09-15T04:00:32.257Z,11.40
2022-09-15T04:01:32.250Z,11.44
2022-09-15T04:02:32.188Z,11.49
2022-09-15T04:03:32.186Z,11.54
2022-09-15T04:04:32.186Z,11.55
2022-09-15T04:05:32.176Z,11.55
2022-09-15T04:06:32.144Z,11.58
2022-09-15T04:07:32.145Z,11.57
2022-09-15T04:08:33.117Z,11.60
2022-09-15T04:09:32.163Z,11.58
2022-09-15T04:10:32.123Z,11.58
2022-09-15T04:11:32.144Z,11.62
2022-09-15T04:12:32.109Z,11.64
2022-09-15T04:13:32.070Z,11.65
2022-09-15T04:14:32.179Z,11.65
2022-09-15T04:15:32.070Z,11.67
2022-09-15T04:16:32.178Z,11.69
2022-09-15T04:17:32.049Z,11.70
2022-09-15T04:18:31.996Z,11.72
2022-09-15T04:19:32.042Z,11.70
2022-09-15T04:20:32.014Z,11.72
2022-09-15T04:21:31.995Z,11.73
2022-09-15T04:22:32.837Z,11.75
2022-09-15T04:23:32.037Z,11.75
2022-09-15T04:27:01.061Z,11.85
2022-09-15T04:28:01.052Z,11.82
2022-09-15T04:29:04.173Z,11.83
2022-09-15T04:30:01.029Z,11.82
2022-09-15T04:31:01.082Z,11.85
2022-09-15T04:32:01.003Z,11.86
2022-09-15T04:33:00.990Z,11.86
2022-09-15T04:34:00.973Z,11.86
2022-09-15T04:35:00.985Z,11.88
2022-09-15T04:36:00.941Z,11.86
2022-09-15T04:37:00.932Z,11.88
2022-09-15T04:38:00.957Z,11.88
2022-09-15T04:39:00.924Z,11.88
2022-09-15T04:40:05.019Z,11.88
2022-09-15T04:41:00.906Z,11.91
2022-09-15T04:42:00.887Z,11.90
2022-09-15T04:43:00.875Z,11.88
2022-09-15T04:44:00.860Z,11.90
2022-09-15T04:45:00.862Z,11.94
2022-09-15T04:46:00.842Z,11.90
2022-09-15T04:47:00.880Z,11.90
2022-09-15T04:48:00.840Z,11.91
2022-09-15T04:49:00.812Z,11.94
2022-09-15T04:50:00.816Z,11.91
2022-09-15T04:51:00.822Z,11.96
2022-09-15T04:52:00.779Z,11.94
2022-09-15T04:53:00.785Z,11.94
2022-09-15T04:54:00.793Z,11.94
2022-09-15T04:55:00.752Z,11.95
2022-09-15T04:56:00.758Z,11.98
2022-09-15T04:57:00.725Z,11.96
2022-09-15T04:58:00.720Z,11.98
2022-09-15T04:59:03.833Z,11.96
2022-09-15T05:00:00.697Z,11.98
2022-09-15T05:01:00.746Z,11.98
2022-09-15T05:02:00.724Z,11.99
2022-09-15T05:03:00.656Z,12.01
2022-09-15T05:04:00.657Z,11.99
2022-09-15T05:05:00.906Z,12.01
2022-09-15T05:06:00.634Z,11.99
2022-09-15T05:07:00.621Z,11.99
2022-09-15T05:08:00.611Z,12.01
2022-09-15T05:09:00.592Z,12.04
2022-09-15T05:10:00.593Z,12.01
2022-09-15T05:11:00.582Z,12.04
2022-09-15T05:12:00.581Z,12.04
2022-09-15T05:13:00.556Z,12.04
2022-09-15T05:14:00.552Z,12.05
2022-09-15T05:15:00.549Z,12.04
2022-09-15T05:16:00.582Z,12.05
2022-09-15T05:17:00.512Z,12.07
2022-09-15T05:18:00.527Z,12.07
2022-09-15T05:19:00.499Z,12.07
2022-09-15T05:20:00.812Z,12.09
2022-09-15T05:21:00.465Z,12.10
2022-09-15T05:22:00.451Z,12.13
2022-09-15T05:23:00.452Z,12.13
2022-09-15T05:24:00.423Z,12.13
2022-09-15T05:25:00.497Z,12.16
2022-09-15T05:26:00.438Z,12.16
2022-09-15T05:27:00.412Z,12.17
2022-09-15T05:28:00.403Z,12.16
2022-09-15T05:29:00.384Z,12.19
2022-09-15T05:30:17.738Z,12.19
2022-09-15T05:31:01.391Z,12.20
2022-09-15T05:32:00.360Z,12.19
2022-09-15T05:33:00.362Z,12.21
2022-09-15T05:34:00.324Z,12.23
2022-09-15T05:35:00.305Z,12.23
2022-09-15T05:36:00.297Z,12.24
2022-09-15T05:37:00.304Z,12.28
2022-09-15T05:38:00.284Z,12.29
2022-09-15T05:39:00.278Z,12.32
2022-09-15T05:40:00.351Z,12.34
2022-09-15T05:41:00.247Z,12.38
2022-09-15T05:42:00.244Z,12.39
2022-09-15T05:43:00.224Z,12.45
2022-09-15T05:44:00.243Z,12.50
2022-09-15T05:45:00.218Z,12.54
2022-09-15T05:46:00.214Z,12.56
2022-09-15T05:47:00.245Z,12.59
2022-09-15T05:48:00.200Z,12.60
2022-09-15T05:49:00.166Z,12.64
2022-09-15T05:50:00.173Z,12.68
2022-09-15T05:51:00.153Z,12.72
2022-09-15T05:52:00.144Z,12.74
2022-09-15T05:53:00.121Z,12.78
2022-09-15T05:54:00.112Z,12.85
2022-09-15T05:55:00.086Z,12.89
2022-09-15T05:56:00.147Z,12.93
2022-09-15T05:57:00.096Z,12.96
2022-09-15T05:58:00.069Z,13.03
2022-09-15T05:59:00.067Z,13.05
2022-09-15T06:00:00.060Z,13.07
2022-09-15T06:01:00.034Z,13.11
2022-09-15T06:02:00.075Z,13.11
2022-09-15T06:03:00.056Z,13.12
2022-09-15T06:04:00.006Z,13.14
2022-09-15T06:04:59.985Z,13.15
2022-09-15T06:05:59.983Z,13.19
2022-09-15T06:06:59.976Z,13.22
2022-09-15T06:07:59.973Z,13.20
2022-09-15T06:09:00.053Z,13.22
2022-09-15T06:09:59.935Z,13.23
2022-09-15T06:10:59.938Z,13.23
2022-09-15T06:11:59.927Z,13.26
2022-09-15T06:12:59.905Z,13.29
2022-09-15T06:13:59.933Z,13.30
2022-09-15T06:14:59.872Z,13.29
2022-09-15T06:15:59.907Z,13.30
2022-09-15T06:16:59.849Z,13.33
2022-09-15T06:18:00.823Z,13.33
2022-09-15T06:18:59.830Z,13.32
2022-09-15T06:19:59.835Z,13.36
2022-09-15T06:20:59.837Z,13.36
2022-09-15T06:21:59.821Z,13.33
2022-09-15T06:22:59.810Z,13.36
2022-09-15T06:23:59.799Z,13.38
2022-09-15T06:24:59.786Z,13.33
2022-09-15T06:25:59.778Z,13.36
2022-09-15T06:26:59.955Z,13.39
2022-09-15T06:27:59.750Z,13.39
2022-09-15T06:28:59.725Z,13.42
2022-09-15T06:29:59.719Z,13.45
2022-09-15T06:30:59.708Z,13.49
2022-09-15T06:31:59.722Z,13.45
2022-09-15T06:33:00.254Z,13.48
2022-09-15T06:33:59.696Z,13.51
2022-09-15T06:34:59.662Z,13.54
2022-09-15T06:35:59.654Z,13.55
2022-09-15T06:36:59.651Z,13.57
2022-09-15T06:37:59.635Z,13.59
2022-09-15T06:38:59.615Z,13.57
2022-09-15T06:39:59.679Z,13.59
2022-09-15T06:40:59.594Z,13.59
2022-09-15T06:42:02.855Z,13.60
2022-09-15T06:42:59.596Z,13.62
2022-09-15T06:43:59.708Z,13.60
2022-09-15T06:44:59.568Z,13.62
2022-09-15T06:45:59.593Z,13.59
2022-09-15T06:46:59.541Z,13.59
2022-09-15T06:48:20.638Z,13.60
2022-09-15T06:49:00.516Z,13.63
2022-09-15T06:49:59.519Z,13.60
2022-09-15T06:50:59.495Z,13.63
2022-09-15T06:51:59.492Z,13.62
2022-09-15T06:52:59.477Z,13.60
2022-09-15T06:53:59.458Z,13.63
2022-09-15T06:54:59.444Z,13.66
2022-09-15T06:55:59.446Z,13.67
2022-09-15T06:56:59.447Z,13.67
2022-09-15T06:57:59.508Z,13.71
2022-09-15T06:58:59.414Z,13.73
2022-09-15T06:59:59.384Z,13.71
2022-09-15T07:00:59.393Z,13.77
2022-09-15T07:02:04.133Z,13.81
2022-09-15T07:03:00.479Z,13.84
2022-09-15T07:03:59.379Z,13.85
2022-09-15T07:04:59.356Z,13.84
2022-09-15T07:05:59.359Z,13.91
2022-09-15T07:06:59.328Z,13.95
2022-09-15T07:07:59.328Z,13.92
2022-09-15T07:08:59.310Z,13.99
2022-09-15T07:09:59.296Z,13.99
2022-09-15T07:10:59.297Z,14.06
2022-09-15T07:11:59.270Z,14.03
2022-09-15T07:12:59.258Z,14.07
2022-09-15T07:13:59.246Z,14.09
2022-09-15T07:14:59.242Z,14.12
2022-09-15T07:15:59.257Z,14.17
2022-09-15T07:16:59.214Z,14.17
2022-09-15T07:17:59.204Z,14.21
2022-09-15T07:18:59.223Z,14.24
2022-09-15T07:19:59.176Z,14.22
2022-09-15T07:20:59.178Z,14.22
2022-09-15T07:21:59.168Z,14.27
2022-09-15T07:22:59.148Z,14.28
2022-09-15T07:24:01.557Z,14.32
2022-09-15T07:25:00.121Z,14.36
2022-09-15T07:25:59.115Z,14.36
2022-09-15T07:26:59.115Z,14.39
2022-09-15T07:27:59.120Z,14.42
2022-09-15T07:28:59.279Z,14.46
2022-09-15T07:29:59.093Z,14.54
2022-09-15T07:30:59.084Z,14.57
2022-09-15T07:31:59.130Z,14.60
2022-09-15T07:32:59.058Z,14.61
2022-09-15T07:33:59.055Z,14.62
2022-09-15T07:34:59.013Z,14.60
2022-09-15T07:35:59.021Z,14.60
2022-09-15T07:36:59.000Z,14.62
2022-09-15T07:37:59.027Z,14.60
2022-09-15T07:38:58.978Z,14.58
2022-09-15T07:39:59.034Z,14.60
2022-09-15T07:40:58.951Z,14.64
2022-09-15T07:41:58.949Z,14.68
2022-09-15T07:42:58.958Z,14.73
2022-09-15T07:43:58.924Z,14.69
2022-09-15T07:44:58.920Z,14.69
2022-09-15T07:45:58.960Z,14.70
2022-09-15T07:46:58.887Z,14.73
2022-09-15T07:47:58.909Z,14.70
2022-09-15T07:48:58.883Z,14.75
2022-09-15T07:49:58.906Z,14.77
2022-09-15T07:50:58.855Z,14.75
2022-09-15T07:51:58.842Z,14.78
2022-09-15T07:52:58.824Z,14.83
2022-09-15T07:53:58.819Z,14.86
2022-09-15T07:54:58.806Z,14.84
2022-09-15T07:55:58.795Z,14.88
2022-09-15T07:56:58.793Z,14.81
2022-09-15T07:57:58.783Z,14.83
2022-09-15T07:58:58.770Z,14.83
2022-09-15T07:59:58.861Z,14.86
2022-09-15T08:00:58.776Z,14.92
2022-09-15T08:01:58.763Z,15.01
2022-09-15T08:02:58.734Z,15.07
2022-09-15T08:03:58.710Z,15.16
2022-09-15T08:04:58.706Z,15.16
2022-09-15T08:05:58.697Z,15.25
2022-09-15T08:06:58.679Z,15.25
2022-09-15T08:07:58.670Z,15.21
2022-09-15T08:09:00.665Z,15.28
2022-09-15T08:09:58.652Z,15.35
2022-09-15T08:10:58.630Z,15.41
2022-09-15T08:11:58.624Z,15.47
2022-09-15T08:12:58.626Z,15.53
2022-09-15T08:13:58.597Z,15.65
2022-09-15T08:14:58.588Z,15.64
2022-09-15T08:15:58.619Z,15.64
2022-09-15T08:16:58.565Z,15.68
2022-09-15T08:17:58.561Z,15.78
2022-09-15T08:18:58.546Z,15.89
2022-09-15T08:19:58.544Z,15.93
2022-09-15T08:20:58.520Z,15.78
2022-09-15T08:21:58.510Z,15.94
2022-09-15T08:22:58.516Z,16.01
2022-09-15T08:24:02.605Z,16.11
2022-09-15T08:24:58.475Z,16.20
2022-09-15T08:25:58.475Z,16.23
2022-09-15T08:26:58.451Z,16.28
2022-09-15T08:27:58.452Z,16.15
2022-09-15T08:28:58.451Z,16.12
2022-09-15T08:29:58.470Z,16.17
2022-09-15T08:30:58.656Z,16.12
2022-09-15T08:31:58.431Z,16.23
2022-09-15T08:32:58.392Z,16.25
2022-09-15T08:33:58.414Z,16.35
2022-09-15T08:34:58.390Z,16.45
2022-09-15T08:35:58.376Z,16.41
2022-09-15T08:36:58.353Z,16.45
2022-09-15T08:37:58.338Z,16.46
2022-09-15T08:38:58.337Z,16.45
2022-09-15T08:39:58.372Z,16.38
2022-09-15T08:40:58.326Z,16.39
2022-09-15T08:41:58.288Z,16.45
2022-09-15T08:42:58.298Z,16.50
2022-09-15T08:43:58.264Z,16.50
2022-09-15T08:44:58.268Z,16.53
2022-09-15T08:45:58.293Z,16.58
2022-09-15T08:46:58.237Z,16.46
2022-09-15T08:47:58.230Z,16.35
2022-09-15T08:49:02.604Z,16.31
2022-09-15T08:49:58.216Z,16.38
2022-09-15T08:50:58.193Z,16.33
2022-09-15T08:51:58.187Z,16.35
2022-09-15T08:52:58.184Z,16.43
2022-09-15T08:53:58.176Z,16.52
2022-09-15T08:54:58.190Z,16.60
2022-09-15T08:55:58.142Z,16.64
2022-09-15T08:56:58.143Z,16.70
2022-09-15T08:57:58.136Z,16.63
2022-09-15T08:58:58.111Z,16.70
2022-09-15T08:59:58.132Z,16.68
2022-09-15T09:00:58.108Z,16.75
2022-09-15T09:01:58.197Z,16.76
2022-09-15T09:02:58.111Z,16.81
2022-09-15T09:03:58.074Z,16.93
2022-09-15T09:04:58.047Z,17.01
2022-09-15T09:05:58.018Z,17.07
2022-09-15T09:06:58.025Z,17.19
2022-09-15T09:07:58.022Z,17.26
2022-09-15T09:08:58.003Z,17.23
2022-09-15T09:09:57.998Z,17.22
2022-09-15T09:10:57.990Z,17.23
2022-09-15T09:11:57.977Z,17.28
2022-09-15T09:12:57.967Z,17.25
2022-09-15T09:13:57.947Z,17.36
2022-09-15T09:14:57.945Z,17.41
2022-09-15T09:15:57.947Z,17.48
2022-09-15T09:16:57.932Z,17.49
2022-09-15T09:17:57.896Z,17.49
2022-09-15T09:18:57.910Z,17.55
2022-09-15T09:19:57.880Z,17.70
2022-09-15T09:20:57.861Z,17.74
2022-09-15T09:21:57.883Z,17.70
2022-09-15T09:22:57.857Z,17.63
2022-09-15T09:23:57.945Z,17.54
2022-09-15T09:24:57.820Z,17.63
2022-09-15T09:25:57.830Z,17.87
2022-09-15T09:26:57.793Z,18.07
2022-09-15T09:27:57.813Z,18.10
2022-09-15T09:28:57.789Z,17.90
2022-09-15T09:29:57.771Z,17.82
2022-09-15T09:30:57.828Z,17.82
2022-09-15T09:31:57.779Z,17.79
2022-09-15T09:32:57.975Z,17.75
2022-09-15T09:33:57.753Z,17.81
2022-09-15T09:34:57.711Z,17.71
2022-09-15T09:35:57.712Z,17.52
2022-09-15T09:37:01.480Z,17.54
2022-09-15T09:37:57.680Z,17.58
2022-09-15T09:38:57.685Z,17.56
2022-09-15T09:39:57.701Z,17.33
2022-09-15T09:41:02.044Z,17.18
2022-09-15T09:41:57.643Z,17.07
2022-09-15T09:42:57.639Z,17.06
2022-09-15T09:43:57.632Z,17.07
2022-09-15T09:44:57.611Z,17.14
2022-09-15T09:45:57.837Z,17.18
2022-09-15T09:46:57.599Z,17.22
2022-09-15T09:48:01.429Z,17.26
2022-09-15T09:48:57.581Z,17.33
2022-09-15T09:49:57.568Z,17.51
2022-09-15T09:50:57.541Z,17.68
2022-09-15T09:51:57.545Z,18.00
2022-09-15T09:52:57.545Z,18.30
2022-09-15T09:53:57.517Z,18.69
2022-09-15T09:54:57.503Z,18.78
2022-09-15T09:55:57.497Z,18.76
2022-09-15T09:56:57.493Z,18.50
2022-09-15T09:57:57.472Z,18.20
2022-09-15T09:58:57.481Z,18.02
2022-09-15T09:59:57.463Z,17.71
2022-09-15T10:00:57.453Z,17.64
2022-09-15T10:01:57.457Z,17.52
2022-09-15T10:02:57.416Z,17.46
2022-09-15T10:03:57.465Z,17.48
2022-09-15T10:04:57.463Z,17.52
2022-09-15T10:05:57.380Z,17.52
2022-09-15T10:06:57.406Z,17.54
2022-09-15T10:07:57.368Z,17.51
2022-09-15T10:08:57.343Z,17.49
2022-09-15T10:09:57.329Z,17.46
2022-09-15T10:10:57.335Z,17.43
2022-09-15T10:11:57.317Z,17.49
2022-09-15T10:12:57.318Z,17.44
2022-09-15T10:13:57.304Z,17.38
2022-09-15T10:14:57.312Z,17.36
2022-09-15T10:15:57.270Z,17.44
2022-09-15T10:16:57.352Z,17.52
2022-09-15T10:17:57.269Z,17.70
2022-09-15T10:18:57.241Z,17.77
2022-09-15T10:19:57.230Z,17.95
2022-09-15T10:20:57.227Z,18.08
2022-09-15T10:21:57.209Z,18.30
2022-09-15T10:22:57.199Z,18.54
2022-09-15T10:23:57.189Z,18.69
2022-09-15T10:24:57.181Z,18.66
2022-09-15T10:25:59.990Z,18.78
2022-09-15T10:26:58.156Z,19.07
2022-09-15T10:27:57.144Z,19.13
2022-09-15T10:28:57.140Z,18.88
2022-09-15T10:29:57.171Z,18.72
2022-09-15T10:30:57.120Z,18.80
2022-09-15T10:31:57.189Z,18.63
2022-09-15T10:32:57.084Z,18.73
2022-09-15T10:33:57.086Z,18.69
2022-09-15T10:35:01.033Z,18.70
2022-09-15T10:35:57.063Z,18.78
2022-09-15T10:36:57.054Z,18.75
2022-09-15T10:37:57.044Z,18.63
2022-09-15T10:38:57.028Z,18.73
2022-09-15T10:39:57.205Z,18.87
2022-09-15T10:40:57.009Z,18.73
2022-09-15T10:41:56.985Z,18.80
2022-09-15T10:42:57.000Z,18.92
2022-09-15T10:43:56.971Z,19.06
2022-09-15T10:44:56.958Z,18.94
2022-09-15T10:45:57.023Z,18.91
2022-09-15T10:46:56.935Z,18.87
2022-09-15T10:47:56.952Z,18.75
2022-09-15T10:48:56.933Z,18.58
2022-09-15T10:49:56.913Z,18.50
2022-09-15T10:50:56.915Z,18.42
2022-09-15T10:51:56.896Z,18.48
2022-09-15T10:52:56.893Z,18.50
2022-09-15T10:53:57.686Z,18.57
2022-09-15T10:54:56.864Z,18.72
2022-09-15T10:55:56.845Z,18.75
2022-09-15T10:56:56.856Z,18.67
2022-09-15T10:57:56.858Z,18.78
2022-09-15T10:58:56.875Z,18.80
2022-09-15T10:59:56.830Z,18.75
2022-09-15T11:00:56.843Z,18.75
2022-09-15T11:01:56.816Z,18.76
2022-09-15T11:02:56.762Z,18.82
2022-09-15T11:03:56.769Z,18.76
2022-09-15T11:04:56.755Z,18.72
2022-09-15T11:05:56.777Z,18.66
2022-09-15T11:06:56.728Z,18.67
2022-09-15T11:07:56.738Z,18.50
2022-09-15T11:08:56.719Z,18.45
2022-09-15T11:09:56.705Z,18.44
2022-09-15T11:10:56.696Z,18.35
2022-09-15T11:11:56.677Z,18.29
2022-09-15T11:12:56.669Z,18.20
2022-09-15T11:13:56.654Z,18.12
2022-09-15T11:14:56.646Z,18.08
2022-09-15T11:15:56.664Z,18.03
2022-09-15T11:16:56.627Z,18.00
2022-09-15T11:17:56.614Z,18.08
2022-09-15T11:18:56.621Z,18.12
2022-09-15T11:19:56.591Z,18.05
2022-09-15T11:20:56.598Z,18.14
2022-09-15T11:21:56.574Z,18.20
2022-09-15T11:22:56.566Z,18.33
2022-09-15T11:23:56.552Z,18.42
2022-09-15T11:24:56.549Z,18.50
2022-09-15T11:25:56.535Z,18.52
2022-09-15T11:26:56.535Z,18.69
2022-09-15T11:28:00.294Z,18.90
2022-09-15T11:28:56.507Z,18.90
2022-09-15T11:29:56.478Z,19.08
2022-09-15T11:30:56.479Z,19.25
2022-09-15T11:31:56.657Z,19.29
2022-09-15T11:32:58.048Z,19.39
2022-09-15T11:33:56.453Z,19.29
2022-09-15T11:34:56.438Z,19.13
2022-09-15T11:35:56.424Z,19.23
2022-09-15T11:36:56.594Z,19.21
2022-09-15T11:37:56.403Z,19.22
2022-09-15T11:38:56.392Z,19.14
2022-09-15T11:39:56.421Z,19.07
2022-09-15T11:40:56.364Z,19.40
2022-09-15T11:41:56.404Z,19.43
2022-09-15T11:42:56.352Z,19.39
2022-09-15T11:43:56.344Z,19.33
2022-09-15T11:44:56.334Z,19.54
2022-09-15T11:45:56.304Z,19.69
2022-09-15T11:46:56.363Z,19.78
2022-09-15T11:47:56.298Z,19.94
2022-09-15T11:48:56.300Z,20.11
2022-09-15T11:49:56.286Z,20.26
2022-09-15T11:50:56.265Z,20.18
2022-09-15T11:51:56.237Z,19.91
2022-09-15T11:52:56.237Z,19.80
2022-09-15T11:53:56.221Z,19.86
2022-09-15T11:54:56.230Z,19.87
2022-09-15T11:55:56.409Z,19.68
2022-09-15T11:56:56.198Z,19.50
2022-09-15T11:57:56.183Z,19.33
2022-09-15T11:58:56.190Z,19.19
2022-09-15T11:59:56.170Z,19.31
2022-09-15T12:00:56.170Z,19.37
2022-09-15T12:01:56.157Z,19.19
2022-09-15T12:02:56.227Z,19.25
2022-09-15T12:03:56.140Z,19.31
2022-09-15T12:04:56.120Z,19.18
2022-09-15T12:05:56.110Z,19.16
2022-09-15T12:06:56.185Z,19.21
2022-09-15T12:07:56.155Z,19.19
2022-09-15T12:08:56.133Z,19.23
2022-09-15T12:09:56.079Z,19.19
2022-09-15T12:10:56.070Z,19.02
2022-09-15T12:11:56.039Z,19.04
2022-09-15T12:12:56.036Z,18.88
2022-09-15T12:13:56.018Z,18.80
2022-09-15T12:14:56.017Z,18.69
2022-09-15T12:15:59.883Z,18.65
2022-09-15T12:16:55.978Z,18.67
2022-09-15T12:17:55.976Z,18.76
2022-09-15T12:18:55.976Z,18.72
2022-09-15T12:19:55.945Z,18.62
2022-09-15T12:20:55.945Z,18.54
2022-09-15T12:21:55.921Z,18.51
2022-09-15T12:22:55.921Z,18.42
2022-09-15T12:23:55.902Z,18.36
2022-09-15T12:25:00.085Z,18.30
2022-09-15T12:25:56.883Z,18.33
2022-09-15T12:26:55.871Z,18.37
2022-09-15T12:27:55.861Z,18.44
2022-09-15T12:28:55.858Z,18.48
2022-09-15T12:29:55.834Z,18.50
2022-09-15T12:30:55.864Z,18.57
2022-09-15T12:31:55.821Z,18.66
2022-09-15T12:32:55.864Z,19.22
2022-09-15T12:33:55.802Z,19.48
2022-09-15T12:34:55.779Z,19.50
2022-09-15T12:35:55.780Z,19.66
2022-09-15T12:36:55.822Z,19.69
2022-09-15T12:37:55.773Z,19.69
2022-09-15T12:38:55.815Z,19.65
2022-09-15T12:39:55.776Z,19.68
2022-09-15T12:40:55.716Z,19.58
2022-09-15T12:41:55.716Z,19.54
2022-09-15T12:42:55.729Z,19.76
2022-09-15T12:43:55.689Z,19.77
2022-09-15T12:44:55.682Z,20.17
2022-09-15T12:45:55.797Z,20.29
2022-09-15T12:46:55.744Z,20.03
2022-09-15T12:47:55.663Z,19.69
2022-09-15T12:48:55.655Z,19.76
2022-09-15T12:49:55.636Z,19.68
2022-09-15T12:50:55.626Z,19.54
2022-09-15T12:51:55.604Z,19.26
2022-09-15T12:52:55.608Z,19.11
2022-09-15T12:53:55.651Z,19.02
2022-09-15T12:54:55.583Z,18.91
2022-09-15T12:55:55.557Z,18.91
2022-09-15T12:56:55.570Z,18.87
2022-09-15T12:57:55.557Z,18.80
2022-09-15T12:58:55.538Z,18.73